Time;durP1;ratioP1;P1;durP2;ratioP2;P2;SDS_P1;SDS_P2;PMS_P1;PMS_P2;Temp;Humidity;BMP_temperature;BMP_pressure;BME280_temperature;BME280_humidity;BME280_pressure;Samples;Min_cycle;Max_cycle;Signal;HPM_P1;HPM_P2
2022/08/30 04:19:28;;;;;;;25.67;15.23;;;;;;;17.36;100.00;100558.13;5556203;32;217030;-88
2022/08/30 04:22:31;;;;;;;23.70;14.23;;;;;;;17.29;100.00;100562.25;5544121;32;33728;-88
2022/08/30 04:25:35;;;;;;;17.55;12.93;;;;;;;17.32;100.00;100570.03;5543687;32;34582;-88
2022/08/30 04:28:38;;;;;;;16.83;13.10;;;;;;;17.36;100.00;100580.41;5543583;32;33757;-88
2022/08/30 04:31:41;;;;;;;17.95;12.50;;;;;;;17.41;100.00;100588.12;5543089;32;33834;-88
2022/08/30 04:34:45;;;;;;;14.38;11.95;;;;;;;17.58;100.00;100597.56;5541863;32;33413;-88
2022/08/30 04:37:50;;;;;;;13.98;10.93;;;;;;;17.71;100.00;100591.28;5543247;32;34460;-88
2022/08/30 04:40:54;;;;;;;14.15;10.73;;;;;;;17.81;100.00;100591.41;5543741;32;34020;-88
2022/08/30 04:43:56;;;;;;;15.00;11.70;;;;;;;17.85;100.00;100606.31;5542223;32;33001;-88
2022/08/30 04:46:59;;;;;;;12.82;10.60;;;;;;;17.97;100.00;100609.87;5543339;32;34139;-88
2022/08/30 04:50:02;;;;;;;13.00;10.10;;;;;;;18.04;100.00;100609.28;5542396;32;34825;-86
2022/08/30 04:53:05;;;;;;;14.15;9.82;;;;;;;18.30;100.00;100610.91;5542562;32;33570;-86
2022/08/30 04:56:11;;;;;;;13.10;9.98;;;;;;;18.66;100.00;100611.62;5541047;32;32994;-86
2022/08/30 04:59:14;;;;;;;13.13;9.82;;;;;;;18.91;100.00;100617.72;5541545;32;33526;-86
2022/08/30 05:02:17;;;;;;;10.30;8.73;;;;;;;19.10;100.00;100621.62;5537348;32;34706;-86
2022/08/30 05:05:38;;;;;;;11.80;9.30;;;;;;;19.19;100.00;100628.06;5530957;32;34357;-86
2022/08/30 05:08:41;;;;;;;9.95;7.78;;;;;;;19.31;100.00;100628.91;5522335;32;33079;-86
2022/08/30 05:11:48;;;;;;;11.73;8.55;;;;;;;19.69;100.00;100632.91;5529246;32;33706;-86
2022/08/30 05:14:51;;;;;;;10.93;7.85;;;;;;;20.01;100.00;100629.34;5542953;32;35230;-86
2022/08/30 05:17:54;;;;;;;10.02;8.00;;;;;;;20.51;100.00;100637.69;5538164;32;34211;-86
2022/08/30 05:21:08;;;;;;;9.57;8.10;;;;;;;20.58;100.00;100634.28;5527650;32;33988;-86
2022/08/30 05:24:13;;;;;;;9.13;7.40;;;;;;;20.71;100.00;100634.06;5531331;32;35129;-86
2022/08/30 05:27:15;;;;;;;12.70;8.30;;;;;;;20.67;100.00;100637.19;5542100;32;32651;-86
2022/08/30 05:30:19;;;;;;;13.15;9.00;;;;;;;20.72;100.00;100633.09;5519253;32;34433;-87
2022/08/30 05:33:22;;;;;;;11.05;8.02;;;;;;;20.45;100.00;100636.38;5517922;32;33791;-86
2022/08/30 05:36:27;;;;;;;11.77;8.10;;;;;;;20.35;100.00;100633.63;5526510;32;33283;-86
2022/08/30 05:39:30;;;;;;;9.93;7.85;;;;;;;20.25;100.00;100638.97;5520134;32;32549;-86
2022/08/30 05:42:53;;;;;;;11.55;8.15;;;;;;;20.51;100.00;100637.69;5520544;32;33927;-91
2022/08/30 05:46:07;;;;;;;10.27;7.90;;;;;;;20.30;100.00;100642.12;5528286;32;34230;-91
2022/08/30 05:49:10;;;;;;;8.85;7.95;;;;;;;20.13;100.00;100640.03;5519399;32;34850;-87
2022/08/30 05:52:16;;;;;;;11.88;7.45;;;;;;;20.40;100.00;100639.47;5516219;32;32591;-86
2022/08/30 05:55:19;;;;;;;10.30;8.40;;;;;;;20.74;100.00;100651.81;5514437;32;34133;-86
2022/08/30 05:58:22;;;;;;;8.52;7.62;;;;;;;20.81;100.00;100644.06;5511878;32;33482;-86
2022/08/30 06:01:39;;;;;;;9.65;7.68;;;;;;;20.82;100.00;100656.53;5526982;32;35122;-86
2022/08/30 06:04:42;;;;;;;9.35;7.82;;;;;;;20.98;100.00;100656.03;5537302;32;34436;-86
2022/08/30 06:07:45;;;;;;;19.80;8.27;;;;;;;21.03;100.00;100655.62;5513883;32;33664;-85
2022/08/30 06:10:48;;;;;;;13.43;8.68;;;;;;;21.03;100.00;100650.22;5519449;32;33792;-85
2022/08/30 06:13:54;;;;;;;13.10;9.05;;;;;;;21.11;100.00;100648.56;5528364;32;33544;-84
2022/08/30 06:16:57;;;;;;;13.02;8.73;;;;;;;21.16;100.00;100648.13;5520146;32;32251;-85
2022/08/30 06:20:00;;;;;;;11.73;9.13;;;;;;;21.34;100.00;100659.09;5520050;32;34446;-85
2022/08/30 06:23:03;;;;;;;15.63;9.00;;;;;;;21.65;100.00;100655.41;5511958;32;34101;-85
2022/08/30 06:26:07;;;;;;;11.88;8.82;;;;;;;21.92;100.00;100651.16;5528478;32;33831;-85
2022/08/30 06:29:13;;;;;;;10.30;9.15;;;;;;;21.91;100.00;100665.66;5529362;32;34021;-85
2022/08/30 06:32:16;;;;;;;12.70;7.70;;;;;;;22.15;95.46;100651.69;5528393;32;34217;-85
2022/08/30 06:35:18;;;;;;;12.37;8.20;;;;;;;22.42;95.17;100663.56;5522653;32;33759;-84
2022/08/30 06:38:21;;;;;;;11.15;7.78;;;;;;;22.62;91.31;100647.28;5527190;32;33210;-85
2022/08/30 06:41:27;;;;;;;9.27;7.40;;;;;;;22.59;91.58;100648.44;5520226;32;34196;-85
2022/08/30 06:44:30;;;;;;;8.85;7.80;;;;;;;23.12;88.44;100656.88;5507331;32;33916;-85
2022/08/30 06:47:32;;;;;;;10.30;7.30;;;;;;;23.35;86.60;100650.19;5509383;32;35104;-85
2022/08/30 06:50:35;;;;;;;9.32;7.32;;;;;;;23.21;85.75;100654.25;5520313;32;32414;-85
2022/08/30 06:53:40;;;;;;;9.32;7.80;;;;;;;23.13;87.27;100658.56;5528022;32;33318;-85
2022/08/30 06:56:42;;;;;;;9.15;8.10;;;;;;;23.17;87.91;100651.00;5529314;32;33877;-85
2022/08/30 07:00:01;;;;;;;8.32;7.50;;;;;;;22.57;86.43;100660.41;5516650;32;34451;-85
2022/08/30 07:03:03;;;;;;;8.80;7.20;;;;;;;22.74;84.65;100656.09;5521272;32;32187;-85
2022/08/30 07:06:07;;;;;;;9.82;7.55;;;;;;;22.86;84.83;100660.28;5516718;32;32774;-85
2022/08/30 07:09:10;;;;;;;11.55;7.45;;;;;;;23.07;83.10;100669.16;5523548;32;34542;-86
2022/08/30 07:12:16;;;;;;;9.65;7.80;;;;;;;23.40;82.34;100666.81;5526480;32;33579;-86
2022/08/30 07:15:21;;;;;;;10.98;6.97;;;;;;;23.32;83.83;100664.88;5522478;32;34198;-85
2022/08/30 07:19:10;;;;;;;8.68;7.78;;;;;;;23.29;83.27;100678.69;5508152;32;33699;-85
2022/08/30 07:21:48;;;;;;;9.55;7.35;;;;;;;23.87;78.91;100673.00;5511382;32;32553;-86
2022/08/30 07:24:51;;;;;;;10.48;7.43;;;;;;;24.49;76.39;100675.66;5529382;32;34561;-85
2022/08/30 07:27:54;;;;;;;8.23;6.90;;;;;;;25.26;69.94;100673.12;5515736;32;33933;-86
2022/08/30 07:30:57;;;;;;;11.23;6.87;;;;;;;26.12;68.49;100667.41;5514215;32;34726;-85
2022/08/30 07:33:59;;;;;;;10.60;6.70;;;;;;;26.10;66.84;100672.19;5509853;32;33487;-86
2022/08/30 07:37:02;;;;;;;11.05;7.03;;;;;;;26.60;64.35;100678.38;5515082;32;33463;-85
2022/08/30 07:40:08;;;;;;;8.75;6.60;;;;;;;27.11;62.12;100674.44;5523029;32;34111;-86
2022/08/30 07:43:11;;;;;;;7.82;6.90;;;;;;;27.43;60.21;100677.16;5521711;32;33804;-89
2022/08/30 07:46:14;;;;;;;7.75;6.95;;;;;;;27.66;58.64;100685.34;5507356;32;33934;-87
2022/08/30 07:49:18;;;;;;;9.75;6.50;;;;;;;27.92;59.76;100686.00;5508689;32;32390;-86
2022/08/30 07:52:21;;;;;;;9.00;5.90;;;;;;;29.20;54.11;100682.41;5508379;32;34212;-86
2022/08/30 07:55:24;;;;;;;6.68;5.95;;;;;;;31.12;49.60;100682.62;5517968;32;33790;-85
2022/08/30 07:58:26;;;;;;;6.70;6.00;;;;;;;31.70;44.34;100678.56;5522861;32;34001;-86
2022/08/30 08:01:29;;;;;;;8.30;6.22;;;;;;;32.23;42.74;100672.22;5514487;32;34273;-85
2022/08/30 08:04:34;;;;;;;10.98;6.10;;;;;;;30.57;45.04;100675.19;5508711;32;34071;-86
2022/08/30 08:07:36;;;;;;;6.85;5.65;;;;;;;31.27;43.86;100674.28;5508850;32;33994;-85
2022/08/30 08:10:41;;;;;;;13.82;6.30;;;;;;;30.23;42.88;100675.00;5507586;32;33179;-85
2022/08/30 08:13:46;;;;;;;6.00;5.37;;;;;;;29.61;47.94;100670.03;5516863;32;33732;-85
2022/08/30 08:16:56;;;;;;;7.72;5.90;;;;;;;29.33;47.26;100676.25;5520467;32;33968;-86
2022/08/30 08:19:58;;;;;;;7.37;5.82;;;;;;;29.48;45.81;100673.50;5524859;32;33981;-88
2022/08/30 08:23:01;;;;;;;6.43;5.55;;;;;;;30.01;44.72;100676.91;5528423;32;34571;-88
2022/08/30 08:26:04;;;;;;;9.60;6.15;;;;;;;29.60;46.51;100671.06;5584501;26;33937;-89
2022/08/30 08:29:08;;;;;;;8.43;5.68;;;;;;;29.76;44.12;100674.59;5546569;32;34794;-88
2022/08/30 08:32:11;;;;;;;9.40;6.00;;;;;;;30.48;46.36;100678.09;5537740;32;34808;-89
2022/08/30 08:35:15;;;;;;;6.62;5.93;;;;;;;29.74;46.07;100672.06;5537265;32;33500;-88
2022/08/30 08:38:18;;;;;;;7.00;5.62;;;;;;;28.89;45.51;100675.31;5532870;32;32485;-88
2022/08/30 08:41:36;;;;;;;10.48;5.65;;;;;;;29.91;44.39;100677.25;5541328;32;32821;-89
2022/08/30 08:44:51;;;;;;;6.60;6.00;;;;;;;30.34;45.29;100679.91;5534034;32;32429;-88
2022/08/30 08:48:29;;;;;;;9.73;6.05;;;;;;;30.95;42.31;100674.78;5538690;32;31302;-89
2022/08/30 08:55:19;;;;;;;13.13;6.07;;;;;;;30.51;43.19;100666.75;5548247;32;33990;-89
2022/08/30 08:58:25;;;;;;;8.43;6.05;;;;;;;30.60;44.71;100663.84;5546473;32;34918;-89
2022/08/30 09:01:29;;;;;;;7.47;5.50;;;;;;;30.96;42.14;100672.88;5531148;32;31286;-89
2022/08/30 09:04:36;;;;;;;7.45;5.93;;;;;;;30.91;41.78;100670.75;5540089;32;32547;-89
2022/08/30 09:07:44;;;;;;;8.77;5.82;;;;;;;30.87;41.67;100664.00;5529663;32;33844;-89
2022/08/30 09:14:35;;;;;;;6.85;5.53;;;;;;;31.07;42.24;100658.56;1306917;26;20442;-89
2022/08/30 09:17:52;;;;;;;6.65;5.35;;;;;;;30.77;40.74;100667.13;5569795;32;33558;-89
2022/08/30 09:24:46;;;;;;;7.28;5.55;;;;;;;30.35;43.00;100653.38;4991896;26;20099;-88
2022/08/30 09:27:51;;;;;;;6.68;5.30;;;;;;;30.30;41.15;100655.88;5500797;32;33227;-87
2022/08/30 09:31:02;;;;;;;7.15;5.30;;;;;;;30.18;40.68;100647.41;5482553;32;32915;-87
2022/08/30 09:34:08;;;;;;;6.03;5.50;;;;;;;29.54;41.71;100647.28;5480411;32;32329;-87
2022/08/30 09:37:29;;;;;;;8.02;5.80;;;;;;;29.71;42.41;100645.97;5498306;26;32483;-88
2022/08/30 09:40:41;;;;;;;8.18;5.40;;;;;;;30.06;43.15;100644.34;5508814;32;33409;-88
2022/08/30 09:43:43;;;;;;;8.13;5.60;;;;;;;29.30;43.52;100643.84;5510359;32;32650;-88
2022/08/30 09:46:49;;;;;;;8.75;5.55;;;;;;;30.01;40.96;100641.34;5527084;26;33719;-89
2022/08/30 09:50:06;;;;;;;5.75;5.15;;;;;;;30.86;41.87;100633.03;5511055;32;34144;-88
2022/08/30 09:53:31;;;;;;;8.57;5.90;;;;;;;31.28;38.53;100630.22;5512577;32;33301;-88
2022/08/30 09:56:59;;;;;;;6.35;5.03;;;;;;;30.95;39.24;100630.09;5510676;32;34377;-88
2022/08/30 10:08:12;;;;;;;8.90;5.53;;;;;;;32.42;38.32;100619.44;2617838;26;20166;-90
2022/08/30 10:11:43;;;;;;;7.43;5.93;;;;;;;33.25;35.25;100608.69;5510724;32;34144;-87
2022/08/30 10:15:30;;;;;;;8.85;5.90;;;;;;;33.86;34.91;100603.56;5544429;32;33886;-88
2022/08/30 10:18:39;;;;;;;6.30;5.45;;;;;;;33.77;33.94;100611.28;5551528;32;33668;-88
2022/08/30 10:22:04;;;;;;;8.30;5.87;;;;;;;32.46;36.07;100602.31;5536403;32;32463;-88
2022/08/30 10:25:17;;;;;;;6.65;5.50;;;;;;;31.56;38.05;100607.28;5530207;32;33990;-87
2022/08/30 10:28:34;;;;;;;7.07;5.78;;;;;;;30.69;40.40;100598.84;5550031;32;34236;-87
2022/08/30 10:32:01;;;;;;;10.30;5.72;;;;;;;30.55;40.73;100603.37;5533047;32;33367;-88
2022/08/30 10:35:09;;;;;;;6.35;5.53;;;;;;;30.40;40.45;100596.16;5515970;32;32568;-87
2022/08/30 10:38:29;;;;;;;7.28;5.87;;;;;;;30.46;39.75;100598.09;5525707;32;32704;-87
2022/08/30 10:41:48;;;;;;;7.43;5.75;;;;;;;30.18;40.54;100595.41;5551849;32;33893;-87
2022/08/30 10:44:55;;;;;;;;;;;;;;;29.36;41.27;100590.34;5534577;32;34276;-91
2022/08/30 10:48:07;;;;;;;6.50;5.87;;;;;;;30.91;39.71;100589.44;5524619;32;34426;-90
2022/08/30 10:51:38;;;;;;;5.65;5.05;;;;;;;34.83;32.40;100581.94;5534959;32;33868;-88
2022/08/30 10:54:55;;;;;;;6.72;5.62;;;;;;;37.44;28.76;100575.50;5561588;26;32721;-88
2022/08/30 10:58:05;;;;;;;10.48;5.65;;;;;;;36.29;29.89;100578.03;5513047;32;32166;-88
2022/08/30 11:01:39;;;;;;;7.57;5.85;;;;;;;35.20;31.20;100570.00;5553486;26;33614;-89
2022/08/30 11:04:48;;;;;;;8.82;5.97;;;;;;;34.39;33.19;100563.63;5516241;32;33070;-89
2022/08/30 11:07:56;;;;;;;7.70;6.10;;;;;;;33.56;35.26;100560.25;5522449;32;33266;-88
2022/08/30 11:11:30;;;;;;;7.70;5.82;;;;;;;33.85;33.64;100560.62;5534366;32;34222;-88
2022/08/30 11:14:33;;;;;;;7.43;6.28;;;;;;;33.14;33.94;100553.38;5534679;32;34460;-91
2022/08/30 11:21:48;;;;;;;8.52;5.95;;;;;;;32.28;35.52;100570.06;1337704;26;20409;-89
2022/08/30 11:25:37;;;;;;;9.00;6.00;;;;;;;32.74;35.57;100553.62;5493069;32;33816;-91
2022/08/30 11:28:40;;;;;;;7.15;5.45;;;;;;;32.98;36.10;100545.69;5490501;32;34279;-88
2022/08/30 11:31:43;;;;;;;7.10;5.60;;;;;;;32.70;35.52;100547.72;5491954;32;34063;-89
2022/08/30 11:34:54;;;;;;;6.20;5.60;;;;;;;32.64;34.69;100543.13;5489696;32;33785;-89
2022/08/30 11:37:57;;;;;;;6.53;5.70;;;;;;;32.46;35.17;100544.69;5491244;32;34247;-89
2022/08/30 11:41:27;;;;;;;7.47;6.00;;;;;;;32.09;34.86;100542.47;5533553;26;34730;-89
2022/08/30 11:44:33;;;;;;;6.47;5.68;;;;;;;30.73;36.28;100528.94;5589764;26;35071;-89
2022/08/30 11:47:44;;;;;;;6.25;5.60;;;;;;;30.79;38.44;100520.78;5536505;32;32713;-93
2022/08/30 11:51:04;;;;;;;6.25;5.53;;;;;;;31.03;37.75;100517.63;5567026;26;33148;-86
2022/08/30 11:54:19;;;;;;;7.12;5.87;;;;;;;30.37;38.68;100517.25;5505455;32;31503;-88
2022/08/30 11:57:28;;;;;;;6.00;5.32;;;;;;;30.40;37.28;100508.59;5516639;32;34123;-87
2022/08/30 12:00:40;;;;;;;8.50;5.35;;;;;;;30.42;37.09;100505.69;5528452;32;34476;-88
2022/08/30 12:03:54;;;;;;;6.75;5.28;;;;;;;30.00;37.99;100503.78;5545055;26;34006;-88
2022/08/30 12:07:02;;;;;;;6.57;5.60;;;;;;;30.59;37.80;100506.13;5523297;32;34345;-88
2022/08/30 12:10:19;;;;;;;7.85;6.05;;;;;;;31.01;37.85;100497.81;5513932;32;32612;-89
2022/08/30 12:13:39;;;;;;;7.00;5.85;;;;;;;30.76;38.07;100499.25;5533297;26;34102;-88
2022/08/30 12:20:50;;;;;;;5.80;5.20;;;;;;;31.64;36.72;100493.81;5533378;26;33314;-88
2022/08/30 12:24:39;;;;;;;6.82;5.53;;;;;;;31.96;35.21;100487.63;5468715;32;34450;-90
2022/08/30 12:27:41;;;;;;;6.05;5.40;;;;;;;31.89;35.63;100479.44;5471220;32;34542;-89
2022/08/30 12:30:44;;;;;;;7.40;5.60;;;;;;;30.47;37.94;100471.16;5507029;27;32373;-90
2022/08/30 12:33:58;;;;;;;7.55;6.05;;;;;;;30.42;39.49;100470.94;5516030;32;32386;-90
2022/08/30 12:37:09;;;;;;;8.38;6.20;;;;;;;30.92;37.91;100470.63;5528490;32;34166;-89
2022/08/30 12:40:16;;;;;;;6.75;5.90;;;;;;;30.42;37.55;100464.63;5517416;32;35115;-89
2022/08/30 12:43:36;;;;;;;6.32;5.68;;;;;;;30.27;38.17;100457.44;5519472;32;32327;-89
2022/08/30 12:46:47;;;;;;;6.18;5.62;;;;;;;30.20;37.52;100451.09;5544860;32;34929;-87
2022/08/30 12:49:51;;;;;;;8.50;5.82;;;;;;;30.36;37.86;100444.41;5517281;32;33294;-86
2022/08/30 12:53:01;;;;;;;6.90;5.85;;;;;;;30.16;38.84;100455.28;5516432;32;33289;-86
2022/08/30 12:56:11;;;;;;;7.25;5.55;;;;;;;29.73;40.36;100436.13;5517082;32;34175;-88
2022/08/30 12:59:33;;;;;;;;;;;;;;;29.73;40.75;100435.28;5517599;32;33782;-90
2022/08/30 13:02:55;;;;;;;7.57;6.00;;;;;;;29.85;40.15;100435.56;5530716;32;34388;-87
2022/08/30 13:05:58;;;;;;;6.78;6.03;;;;;;;29.38;40.41;100435.25;5516964;32;32657;-87
2022/08/30 13:09:04;;;;;;;6.45;5.85;;;;;;;29.32;42.21;100435.00;5529515;32;34891;-87
2022/08/30 13:12:19;;;;;;;6.47;5.62;;;;;;;29.58;41.29;100429.97;5529255;32;33976;-87
2022/08/30 13:15:31;;;;;;;6.97;5.55;;;;;;;29.77;41.86;100424.81;5529558;32;34474;-87
2022/08/30 13:18:34;;;;;;;7.30;5.90;;;;;;;28.81;44.05;100430.56;5516910;32;32743;-87
2022/08/30 13:22:22;;;;;;;7.18;6.05;;;;;;;28.56;43.03;100422.78;5530330;32;33587;-87
2022/08/30 13:25:29;;;;;;;7.85;5.62;;;;;;;28.03;44.68;100423.00;5532367;32;34561;-88
2022/08/30 13:28:52;;;;;;;8.68;5.72;;;;;;;27.99;45.79;100417.09;5518180;32;34651;-88
2022/08/30 13:31:55;;;;;;;7.15;6.05;;;;;;;28.04;45.93;100421.97;5531092;32;33865;-88
2022/08/30 13:34:58;;;;;;;6.28;5.62;;;;;;;28.49;44.49;100410.97;5529936;32;33612;-87
2022/08/30 13:38:01;;;;;;;6.82;5.53;;;;;;;28.19;44.93;100413.75;5515609;32;33157;-88
2022/08/30 13:41:20;;;;;;;6.50;5.62;;;;;;;27.50;47.60;100413.06;5545236;26;34301;-92
2022/08/30 13:44:23;;;;;;;8.00;6.00;;;;;;;27.53;48.74;100409.97;5549972;32;33868;-88
